AVA117 SKBO-SEQM
Flight info
| Callsign | AVA117 |
|---|---|
| Flight time | 1h 4m |
| Altitude | 37000 |
| Route | VAPOM4R OREGA DCT BOKAN DCT QIT |
| Aircraft | A339/H-SADE1E2E3GHIJ3J5M1P2RWXY/LB2D1 |
Departure
| Time | 2026-05-04 14:57 |
|---|---|
| Airport | El Dorado International Airport (SKBO) |
Arrival
| Time | 2026-05-04 16:02 |
|---|---|
| Airport | Mariscal Sucre International Airport (SEQM) |
| Time | Latitude | Longitude | Altitude | Speed | Heading |
|---|---|---|---|---|---|
| 2026-05-04 14:11 | 4.70056 | -74.14223 | 8372 ft | 0 kts | 217° |
| 2026-05-04 14:42 | 4.70063 | -74.14218 | 8372 ft | 3 kts | 217° |
| 2026-05-04 14:43 | 4.70079 | -74.14205 | 8372 ft | 3 kts | 217° |
| 2026-05-04 14:43 | 4.70095 | -74.14193 | 8372 ft | 3 kts | 217° |
| 2026-05-04 14:43 | 4.70108 | -74.14182 | 8372 ft | 3 kts | 201° |
| 2026-05-04 14:43 | 4.70120 | -74.14175 | 8372 ft | 3 kts | 165° |
| 2026-05-04 14:44 | 4.70135 | -74.14180 | 8372 ft | 3 kts | 132° |
| 2026-05-04 14:44 | 4.70148 | -74.14195 | 8372 ft | 3 kts | 126° |
| 2026-05-04 14:44 | 4.70155 | -74.14205 | 8372 ft | 0 kts | 123° |
| 2026-05-04 14:47 | 4.70155 | -74.14204 | 8372 ft | 1 kts | 123° |
| 2026-05-04 14:47 | 4.70144 | -74.14189 | 8372 ft | 5 kts | 127° |
| 2026-05-04 14:48 | 4.70118 | -74.14154 | 8372 ft | 8 kts | 127° |
| 2026-05-04 14:48 | 4.70078 | -74.14102 | 8372 ft | 11 kts | 127° |
| 2026-05-04 14:48 | 4.70055 | -74.14055 | 8372 ft | 0 kts | 101° |
| 2026-05-04 14:48 | 4.70056 | -74.14046 | 8372 ft | 1 kts | 91° |
| 2026-05-04 14:49 | 4.70063 | -74.14032 | 8372 ft | 4 kts | 67° |
| 2026-05-04 14:49 | 4.70088 | -74.14005 | 8372 ft | 7 kts | 43° |
| 2026-05-04 14:49 | 4.70124 | -74.13962 | 8372 ft | 9 kts | 67° |
| 2026-05-04 14:49 | 4.70104 | -74.13900 | 8372 ft | 11 kts | 121° |
| 2026-05-04 14:50 | 4.70055 | -74.13834 | 8372 ft | 13 kts | 127° |
| 2026-05-04 14:50 | 4.69994 | -74.13754 | 8372 ft | 16 kts | 127° |
| 2026-05-04 14:50 | 4.69927 | -74.13666 | 8372 ft | 16 kts | 127° |
| 2026-05-04 14:50 | 4.69878 | -74.13601 | 8372 ft | 8 kts | 127° |
| 2026-05-04 14:51 | 4.69836 | -74.13547 | 8372 ft | 11 kts | 127° |
| 2026-05-04 14:51 | 4.69783 | -74.13478 | 8373 ft | 14 kts | 127° |
| 2026-05-04 14:51 | 4.69720 | -74.13394 | 8372 ft | 16 kts | 126° |
| 2026-05-04 14:51 | 4.69647 | -74.13295 | 8372 ft | 19 kts | 127° |
| 2026-05-04 14:52 | 4.69564 | -74.13185 | 8372 ft | 21 kts | 127° |
| 2026-05-04 14:52 | 4.69474 | -74.13068 | 8372 ft | 21 kts | 127° |
| 2026-05-04 14:52 | 4.69387 | -74.12953 | 8372 ft | 20 kts | 127° |
| 2026-05-04 14:52 | 4.69304 | -74.12842 | 8372 ft | 20 kts | 127° |
| 2026-05-04 14:53 | 4.69223 | -74.12736 | 8372 ft | 17 kts | 127° |
| 2026-05-04 14:53 | 4.69199 | -74.12646 | 8372 ft | 13 kts | 82° |
| 2026-05-04 14:53 | 4.69212 | -74.12597 | 8372 ft | 0 kts | 74° |
| 2026-05-04 14:55 | 4.69217 | -74.12578 | 8372 ft | 5 kts | 74° |
| 2026-05-04 14:55 | 4.69230 | -74.12535 | 8373 ft | 7 kts | 71° |
| 2026-05-04 14:55 | 4.69257 | -74.12507 | 8374 ft | 4 kts | 30° |
| 2026-05-04 14:55 | 4.69284 | -74.12510 | 8374 ft | 5 kts | 349° |
| 2026-05-04 14:56 | 4.69324 | -74.12542 | 8373 ft | 10 kts | 310° |
| 2026-05-04 14:56 | 4.69351 | -74.12578 | 8373 ft | 0 kts | 307° |
| 2026-05-04 14:56 | 4.69386 | -74.12624 | 8372 ft | 37 kts | 307° |
| 2026-05-04 14:57 | 4.69702 | -74.13043 | 8372 ft | 111 kts | 307° |
| 2026-05-04 14:57 | 4.70296 | -74.13830 | 8371 ft | 169 kts | 307° |
| 2026-05-04 14:57 | 4.71091 | -74.14887 | 8466 ft | 203 kts | 307° |
| 2026-05-04 14:57 | 4.71918 | -74.16013 | 9248 ft | 199 kts | 304° |
| 2026-05-04 14:58 | 4.72738 | -74.17155 | 9909 ft | 204 kts | 307° |
| 2026-05-04 14:58 | 4.73583 | -74.18303 | 10392 ft | 214 kts | 308° |
| 2026-05-04 14:58 | 4.74561 | -74.19554 | 10579 ft | 235 kts | 309° |
| 2026-05-04 14:58 | 4.75488 | -74.20977 | 10808 ft | 252 kts | 292° |
| 2026-05-04 14:59 | 4.75790 | -74.22759 | 10981 ft | 270 kts | 265° |
| 2026-05-04 14:59 | 4.75470 | -74.24659 | 11154 ft | 285 kts | 253° |
| 2026-05-04 14:59 | 4.74337 | -74.28748 | 11459 ft | 323 kts | 253° |
| 2026-05-04 15:00 | 4.73792 | -74.31000 | 11618 ft | 342 kts | 256° |
| 2026-05-04 15:00 | 4.73278 | -74.33384 | 11813 ft | 357 kts | 257° |
| 2026-05-04 15:00 | 4.72779 | -74.35854 | 11930 ft | 364 kts | 257° |
| 2026-05-04 15:01 | 4.71787 | -74.40847 | 12722 ft | 365 kts | 257° |
| 2026-05-04 15:01 | 4.70921 | -74.43240 | 13231 ft | 365 kts | 239° |
| 2026-05-04 15:01 | 4.69375 | -74.45243 | 13731 ft | 365 kts | 221° |
| 2026-05-04 15:01 | 4.67372 | -74.46805 | 14217 ft | 366 kts | 214° |
| 2026-05-04 15:02 | 4.65318 | -74.48333 | 14642 ft | 369 kts | 214° |
| 2026-05-04 15:02 | 4.63255 | -74.49887 | 15047 ft | 373 kts | 215° |
| 2026-05-04 15:02 | 4.61177 | -74.51468 | 15468 ft | 376 kts | 216° |
| 2026-05-04 15:02 | 4.59120 | -74.53041 | 15881 ft | 379 kts | 216° |
| 2026-05-04 15:03 | 4.57019 | -74.54652 | 16280 ft | 382 kts | 216° |
| 2026-05-04 15:03 | 4.54904 | -74.56273 | 16687 ft | 385 kts | 216° |
| 2026-05-04 15:03 | 4.52774 | -74.57906 | 17098 ft | 388 kts | 216° |
| 2026-05-04 15:03 | 4.50618 | -74.59559 | 17466 ft | 391 kts | 216° |
| 2026-05-04 15:04 | 4.48443 | -74.61225 | 17876 ft | 395 kts | 216° |
| 2026-05-04 15:04 | 4.46257 | -74.62896 | 18292 ft | 398 kts | 216° |
| 2026-05-04 15:04 | 4.44050 | -74.64587 | 18660 ft | 400 kts | 216° |
| 2026-05-04 15:04 | 4.41838 | -74.66295 | 19043 ft | 402 kts | 218° |
| 2026-05-04 15:05 | 4.39814 | -74.68246 | 19387 ft | 405 kts | 228° |
| 2026-05-04 15:05 | 4.38135 | -74.70527 | 19583 ft | 408 kts | 238° |
| 2026-05-04 15:05 | 4.36805 | -74.73056 | 19639 ft | 409 kts | 243° |
| 2026-05-04 15:05 | 4.35534 | -74.75598 | 19630 ft | 408 kts | 243° |
| 2026-05-04 15:06 | 4.34243 | -74.78138 | 19508 ft | 408 kts | 242° |
| 2026-05-04 15:06 | 4.32964 | -74.80631 | 19506 ft | 408 kts | 242° |
| 2026-05-04 15:06 | 4.31663 | -74.83155 | 19507 ft | 408 kts | 242° |
| 2026-05-04 15:07 | 4.29057 | -74.88208 | 19505 ft | 408 kts | 242° |
| 2026-05-04 15:07 | 4.27756 | -74.90733 | 19516 ft | 408 kts | 242° |
| 2026-05-04 15:07 | 4.26456 | -74.93254 | 19523 ft | 408 kts | 242° |
| 2026-05-04 15:07 | 4.25151 | -74.95788 | 19536 ft | 408 kts | 242° |
| 2026-05-04 15:08 | 4.23853 | -74.98309 | 19551 ft | 408 kts | 242° |
| 2026-05-04 15:08 | 4.22551 | -75.00835 | 19563 ft | 408 kts | 242° |
| 2026-05-04 15:08 | 4.21241 | -75.03370 | 19635 ft | 408 kts | 241° |
| 2026-05-04 15:08 | 4.19734 | -75.05790 | 19815 ft | 410 kts | 233° |
| 2026-05-04 15:09 | 4.18006 | -75.08065 | 20248 ft | 411 kts | 232° |
| 2026-05-04 15:09 | 4.16284 | -75.10351 | 20642 ft | 413 kts | 232° |
| 2026-05-04 15:09 | 4.14551 | -75.12668 | 21033 ft | 416 kts | 232° |
| 2026-05-04 15:10 | 4.11065 | -75.17336 | 21814 ft | 421 kts | 232° |
| 2026-05-04 15:10 | 4.09307 | -75.19688 | 22169 ft | 424 kts | 232° |
| 2026-05-04 15:10 | 4.05758 | -75.24427 | 22950 ft | 429 kts | 232° |
| 2026-05-04 15:11 | 4.03952 | -75.26839 | 23336 ft | 431 kts | 232° |
| 2026-05-04 15:11 | 4.02147 | -75.29251 | 23708 ft | 434 kts | 232° |
| 2026-05-04 15:11 | 4.00326 | -75.31682 | 24041 ft | 437 kts | 232° |
| 2026-05-04 15:11 | 3.98498 | -75.34122 | 24376 ft | 439 kts | 232° |
| 2026-05-04 15:12 | 3.96665 | -75.36571 | 24728 ft | 440 kts | 232° |
| 2026-05-04 15:12 | 3.94824 | -75.39028 | 25069 ft | 442 kts | 232° |
| 2026-05-04 15:12 | 3.92974 | -75.41498 | 25418 ft | 444 kts | 232° |
| 2026-05-04 15:12 | 3.91112 | -75.43983 | 25776 ft | 447 kts | 232° |
| 2026-05-04 15:13 | 3.89271 | -75.46441 | 26112 ft | 448 kts | 232° |
| 2026-05-04 15:13 | 3.87309 | -75.48877 | 26391 ft | 450 kts | 226° |
| 2026-05-04 15:13 | 3.85067 | -75.51066 | 26726 ft | 451 kts | 219° |
| 2026-05-04 15:13 | 3.82610 | -75.53006 | 27049 ft | 452 kts | 216° |
| 2026-05-04 15:14 | 3.80118 | -75.54930 | 27364 ft | 454 kts | 216° |
| 2026-05-04 15:14 | 3.77615 | -75.56878 | 27679 ft | 457 kts | 216° |
| 2026-05-04 15:14 | 3.75103 | -75.58841 | 27992 ft | 458 kts | 217° |
| 2026-05-04 15:14 | 3.72572 | -75.60820 | 28306 ft | 461 kts | 217° |
| 2026-05-04 15:15 | 3.70040 | -75.62800 | 28618 ft | 463 kts | 217° |
| 2026-05-04 15:15 | 3.67497 | -75.64788 | 28938 ft | 465 kts | 217° |
| 2026-05-04 15:15 | 3.64939 | -75.66787 | 29240 ft | 467 kts | 217° |
| 2026-05-04 15:16 | 3.59800 | -75.70802 | 29812 ft | 472 kts | 217° |
| 2026-05-04 15:16 | 3.57200 | -75.72833 | 30062 ft | 475 kts | 216° |
| 2026-05-04 15:16 | 3.51975 | -75.76912 | 30627 ft | 479 kts | 216° |
| 2026-05-04 15:17 | 3.49338 | -75.78971 | 30903 ft | 481 kts | 216° |
| 2026-05-04 15:17 | 3.44026 | -75.83120 | 31450 ft | 485 kts | 216° |
| 2026-05-04 15:17 | 3.41362 | -75.85200 | 31722 ft | 487 kts | 216° |
| 2026-05-04 15:18 | 3.38680 | -75.87295 | 31967 ft | 490 kts | 216° |
| 2026-05-04 15:18 | 3.36025 | -75.89368 | 32250 ft | 491 kts | 216° |
| 2026-05-04 15:18 | 3.33328 | -75.91472 | 32515 ft | 493 kts | 216° |
| 2026-05-04 15:19 | 3.27902 | -75.95706 | 32952 ft | 497 kts | 217° |
| 2026-05-04 15:19 | 3.25172 | -75.97835 | 33136 ft | 498 kts | 217° |
| 2026-05-04 15:19 | 3.19696 | -76.02109 | 33459 ft | 500 kts | 217° |
| 2026-05-04 15:20 | 3.16954 | -76.04248 | 33589 ft | 501 kts | 217° |
| 2026-05-04 15:20 | 3.14200 | -76.06397 | 33725 ft | 502 kts | 217° |
| 2026-05-04 15:20 | 3.11444 | -76.08546 | 33904 ft | 501 kts | 217° |
| 2026-05-04 15:20 | 3.08690 | -76.10695 | 34073 ft | 501 kts | 217° |
| 2026-05-04 15:21 | 3.05937 | -76.12844 | 34191 ft | 501 kts | 217° |
| 2026-05-04 15:21 | 3.03195 | -76.14983 | 34349 ft | 501 kts | 217° |
| 2026-05-04 15:21 | 2.97723 | -76.19250 | 34587 ft | 501 kts | 217° |
| 2026-05-04 15:22 | 2.94979 | -76.21390 | 34712 ft | 501 kts | 217° |
| 2026-05-04 15:22 | 2.92214 | -76.23546 | 34836 ft | 501 kts | 217° |
| 2026-05-04 15:22 | 2.86711 | -76.27838 | 35039 ft | 502 kts | 217° |
| 2026-05-04 15:23 | 2.83953 | -76.29989 | 35215 ft | 501 kts | 217° |
| 2026-05-04 15:23 | 2.81201 | -76.32134 | 35383 ft | 501 kts | 217° |
| 2026-05-04 15:23 | 2.78449 | -76.34280 | 35552 ft | 500 kts | 217° |
| 2026-05-04 15:23 | 2.75711 | -76.36414 | 35714 ft | 500 kts | 217° |
| 2026-05-04 15:24 | 2.70240 | -76.40678 | 36073 ft | 498 kts | 217° |
| 2026-05-04 15:24 | 2.64767 | -76.44943 | 36448 ft | 497 kts | 217° |
| 2026-05-04 15:25 | 2.62034 | -76.47073 | 36639 ft | 497 kts | 217° |
| 2026-05-04 15:25 | 2.59311 | -76.49195 | 36825 ft | 497 kts | 217° |
| 2026-05-04 15:25 | 2.56584 | -76.51319 | 37029 ft | 496 kts | 217° |
| 2026-05-04 15:26 | 2.51191 | -76.55521 | 37209 ft | 494 kts | 217° |
| 2026-05-04 15:26 | 2.43033 | -76.61877 | 37211 ft | 495 kts | 217° |
| 2026-05-04 15:27 | 2.34955 | -76.68169 | 37199 ft | 495 kts | 217° |
| 2026-05-04 15:28 | 2.26798 | -76.74521 | 37158 ft | 495 kts | 217° |
| 2026-05-04 15:29 | 2.18652 | -76.80865 | 37108 ft | 495 kts | 217° |
| 2026-05-04 15:30 | 2.00476 | -76.95014 | 37085 ft | 496 kts | 217° |
| 2026-05-04 15:31 | 1.92311 | -77.01369 | 37072 ft | 496 kts | 217° |
| 2026-05-04 15:32 | 1.78738 | -77.11931 | 37071 ft | 496 kts | 217° |
| 2026-05-04 15:34 | 1.65118 | -77.22528 | 37127 ft | 496 kts | 217° |
| 2026-05-04 15:34 | 1.56945 | -77.28887 | 37186 ft | 497 kts | 217° |
| 2026-05-04 15:35 | 1.48740 | -77.35269 | 37222 ft | 497 kts | 217° |
| 2026-05-04 15:36 | 1.40553 | -77.41637 | 37221 ft | 497 kts | 217° |
| 2026-05-04 15:36 | 1.35089 | -77.45887 | 37193 ft | 497 kts | 217° |
| 2026-05-04 15:37 | 1.29625 | -77.50136 | 37178 ft | 498 kts | 217° |
| 2026-05-04 15:37 | 1.24157 | -77.54388 | 37171 ft | 498 kts | 217° |
| 2026-05-04 15:38 | 1.18681 | -77.58646 | 37200 ft | 498 kts | 217° |
| 2026-05-04 15:38 | 1.13208 | -77.62902 | 37288 ft | 498 kts | 217° |
| 2026-05-04 15:39 | 1.07741 | -77.67153 | 37361 ft | 498 kts | 217° |
| 2026-05-04 15:40 | 0.99541 | -77.73528 | 37427 ft | 498 kts | 217° |
| 2026-05-04 15:40 | 0.96811 | -77.75651 | 37249 ft | 498 kts | 217° |
| 2026-05-04 15:40 | 0.94087 | -77.77769 | 36844 ft | 498 kts | 217° |
| 2026-05-04 15:40 | 0.91350 | -77.79897 | 36457 ft | 498 kts | 217° |
| 2026-05-04 15:41 | 0.88609 | -77.82029 | 36048 ft | 499 kts | 217° |
| 2026-05-04 15:41 | 0.85856 | -77.84169 | 35634 ft | 501 kts | 217° |
| 2026-05-04 15:41 | 0.83103 | -77.86310 | 35214 ft | 502 kts | 216° |
| 2026-05-04 15:41 | 0.80340 | -77.88458 | 34793 ft | 503 kts | 216° |
| 2026-05-04 15:42 | 0.77548 | -77.90577 | 34370 ft | 504 kts | 215° |
| 2026-05-04 15:42 | 0.74730 | -77.92663 | 33898 ft | 503 kts | 215° |
| 2026-05-04 15:42 | 0.71944 | -77.94718 | 33424 ft | 504 kts | 215° |
| 2026-05-04 15:42 | 0.69133 | -77.96796 | 32963 ft | 504 kts | 215° |
| 2026-05-04 15:43 | 0.66309 | -77.98891 | 32505 ft | 506 kts | 215° |
| 2026-05-04 15:43 | 0.63480 | -78.00995 | 32063 ft | 507 kts | 215° |
| 2026-05-04 15:43 | 0.60651 | -78.03101 | 31609 ft | 505 kts | 215° |
| 2026-05-04 15:43 | 0.57845 | -78.05191 | 31211 ft | 502 kts | 215° |
| 2026-05-04 15:44 | 0.55042 | -78.07279 | 30811 ft | 499 kts | 215° |
| 2026-05-04 15:44 | 0.52270 | -78.09343 | 30330 ft | 496 kts | 214° |
| 2026-05-04 15:44 | 0.49507 | -78.11402 | 29767 ft | 492 kts | 214° |
| 2026-05-04 15:44 | 0.46778 | -78.13434 | 29206 ft | 487 kts | 214° |
| 2026-05-04 15:45 | 0.44079 | -78.15444 | 28670 ft | 480 kts | 214° |
| 2026-05-04 15:45 | 0.41418 | -78.17426 | 28142 ft | 474 kts | 214° |
| 2026-05-04 15:45 | 0.38777 | -78.19392 | 27634 ft | 470 kts | 214° |
| 2026-05-04 15:45 | 0.36186 | -78.21321 | 27135 ft | 468 kts | 214° |
| 2026-05-04 15:46 | 0.33549 | -78.23283 | 26653 ft | 465 kts | 214° |
| 2026-05-04 15:46 | 0.30964 | -78.25207 | 26169 ft | 460 kts | 214° |
| 2026-05-04 15:46 | 0.28410 | -78.27108 | 25708 ft | 456 kts | 214° |
| 2026-05-04 15:46 | 0.25915 | -78.28966 | 25265 ft | 453 kts | 214° |
| 2026-05-04 15:47 | 0.23350 | -78.30878 | 24817 ft | 450 kts | 214° |
| 2026-05-04 15:47 | 0.20850 | -78.32739 | 24395 ft | 447 kts | 215° |
| 2026-05-04 15:47 | 0.18370 | -78.34586 | 23968 ft | 442 kts | 215° |
| 2026-05-04 15:47 | 0.15913 | -78.36413 | 23497 ft | 439 kts | 215° |
| 2026-05-04 15:48 | 0.13469 | -78.38232 | 23010 ft | 437 kts | 215° |
| 2026-05-04 15:48 | 0.11037 | -78.40043 | 22514 ft | 435 kts | 215° |
| 2026-05-04 15:48 | 0.06226 | -78.43625 | 21421 ft | 425 kts | 215° |
| 2026-05-04 15:49 | 0.03859 | -78.45388 | 20876 ft | 422 kts | 215° |
| 2026-05-04 15:49 | 0.01511 | -78.47135 | 20360 ft | 420 kts | 215° |
| 2026-05-04 15:49 | -0.00832 | -78.48880 | 19863 ft | 418 kts | 215° |
| 2026-05-04 15:49 | -0.03149 | -78.50605 | 19346 ft | 413 kts | 215° |
| 2026-05-04 15:50 | -0.05415 | -78.52368 | 18860 ft | 411 kts | 221° |
| 2026-05-04 15:50 | -0.07596 | -78.54183 | 18344 ft | 408 kts | 212° |
| 2026-05-04 15:50 | -0.10137 | -78.55396 | 17799 ft | 402 kts | 195° |
| 2026-05-04 15:50 | -0.12809 | -78.56135 | 17305 ft | 396 kts | 193° |
| 2026-05-04 15:51 | -0.15433 | -78.56837 | 17040 ft | 381 kts | 191° |
| 2026-05-04 15:51 | -0.17968 | -78.57141 | 17004 ft | 357 kts | 179° |
| 2026-05-04 15:51 | -0.20392 | -78.57155 | 16980 ft | 340 kts | 178° |
| 2026-05-04 15:51 | -0.22697 | -78.57166 | 16882 ft | 324 kts | 178° |
| 2026-05-04 15:52 | -0.24939 | -78.57176 | 16487 ft | 318 kts | 178° |
| 2026-05-04 15:52 | -0.27118 | -78.57055 | 16106 ft | 311 kts | 170° |
| 2026-05-04 15:52 | -0.29239 | -78.56706 | 15711 ft | 307 kts | 168° |
| 2026-05-04 15:52 | -0.31326 | -78.56348 | 15333 ft | 302 kts | 168° |
| 2026-05-04 15:53 | -0.33363 | -78.56000 | 14974 ft | 298 kts | 168° |
| 2026-05-04 15:53 | -0.35369 | -78.55658 | 14618 ft | 293 kts | 168° |
| 2026-05-04 15:53 | -0.37379 | -78.55314 | 14273 ft | 288 kts | 168° |
| 2026-05-04 15:53 | -0.39325 | -78.54951 | 13890 ft | 281 kts | 163° |
| 2026-05-04 15:54 | -0.41028 | -78.54109 | 13527 ft | 272 kts | 139° |
| 2026-05-04 15:54 | -0.42172 | -78.52667 | 13190 ft | 260 kts | 114° |
| 2026-05-04 15:54 | -0.42541 | -78.50976 | 13021 ft | 240 kts | 90° |
| 2026-05-04 15:54 | -0.42249 | -78.49416 | 13005 ft | 221 kts | 70° |
| 2026-05-04 15:55 | -0.41499 | -78.48161 | 13012 ft | 201 kts | 52° |
| 2026-05-04 15:55 | -0.40613 | -78.47166 | 13014 ft | 186 kts | 52° |
| 2026-05-04 15:55 | -0.39748 | -78.46150 | 13007 ft | 193 kts | 53° |
| 2026-05-04 15:55 | -0.38901 | -78.45111 | 13000 ft | 193 kts | 54° |
| 2026-05-04 15:56 | -0.38064 | -78.44068 | 13025 ft | 193 kts | 54° |
| 2026-05-04 15:56 | -0.37218 | -78.43026 | 13004 ft | 192 kts | 54° |
| 2026-05-04 15:56 | -0.36375 | -78.41989 | 12842 ft | 193 kts | 54° |
| 2026-05-04 15:56 | -0.35529 | -78.40949 | 12592 ft | 192 kts | 54° |
| 2026-05-04 15:57 | -0.34693 | -78.39925 | 12329 ft | 189 kts | 54° |
| 2026-05-04 15:57 | -0.33860 | -78.38906 | 12076 ft | 190 kts | 53° |
| 2026-05-04 15:57 | -0.33028 | -78.37887 | 11803 ft | 189 kts | 53° |
| 2026-05-04 15:57 | -0.32201 | -78.36866 | 11517 ft | 190 kts | 52° |
| 2026-05-04 15:58 | -0.31348 | -78.35835 | 11255 ft | 191 kts | 49° |
| 2026-05-04 15:58 | -0.30290 | -78.35070 | 11118 ft | 191 kts | 24° |
| 2026-05-04 15:58 | -0.28985 | -78.34776 | 10910 ft | 191 kts | 5° |
| 2026-05-04 15:58 | -0.27691 | -78.34767 | 10659 ft | 181 kts | 358° |
| 2026-05-04 15:59 | -0.26433 | -78.34833 | 10430 ft | 182 kts | 357° |
| 2026-05-04 15:59 | -0.25186 | -78.34885 | 10204 ft | 181 kts | 358° |
| 2026-05-04 15:59 | -0.23928 | -78.34941 | 9964 ft | 180 kts | 358° |
| 2026-05-04 15:59 | -0.22678 | -78.34995 | 9734 ft | 179 kts | 358° |
| 2026-05-04 16:00 | -0.21434 | -78.35048 | 9502 ft | 179 kts | 358° |
| 2026-05-04 16:00 | -0.20197 | -78.35102 | 9262 ft | 178 kts | 358° |
| 2026-05-04 16:00 | -0.18960 | -78.35156 | 9017 ft | 177 kts | 358° |
| 2026-05-04 16:00 | -0.17731 | -78.35210 | 8735 ft | 175 kts | 358° |
| 2026-05-04 16:01 | -0.16530 | -78.35265 | 8463 ft | 173 kts | 356° |
| 2026-05-04 16:01 | -0.15330 | -78.35325 | 8204 ft | 172 kts | 356° |
| 2026-05-04 16:01 | -0.14131 | -78.35382 | 7954 ft | 172 kts | 358° |
| 2026-05-04 16:01 | -0.13022 | -78.35416 | 7883 ft | 127 kts | 358° |
| 2026-05-04 16:02 | -0.12446 | -78.35443 | 7854 ft | 40 kts | 358° |
| 2026-05-04 16:02 | -0.12298 | -78.35448 | 7839 ft | 11 kts | 358° |
| 2026-05-04 16:02 | -0.12104 | -78.35460 | 7835 ft | 17 kts | 356° |
| 2026-05-04 16:03 | -0.11977 | -78.35465 | 7829 ft | 20 kts | 359° |
| 2026-05-04 16:03 | -0.11837 | -78.35476 | 7827 ft | 20 kts | 350° |
| 2026-05-04 16:03 | -0.11707 | -78.35527 | 7825 ft | 19 kts | 332° |
| 2026-05-04 16:03 | -0.11625 | -78.35581 | 7820 ft | 6 kts | 314° |
| 2026-05-04 16:04 | -0.11622 | -78.35618 | 7823 ft | 5 kts | 257° |
| 2026-05-04 16:04 | -0.11671 | -78.35640 | 7823 ft | 5 kts | 190° |
| 2026-05-04 16:04 | -0.11723 | -78.35641 | 7830 ft | 9 kts | 179° |
| 2026-05-04 16:05 | -0.11780 | -78.35639 | 7826 ft | 8 kts | 178° |
| 2026-05-04 16:05 | -0.11832 | -78.35637 | 7827 ft | 7 kts | 178° |
| 2026-05-04 16:05 | -0.11920 | -78.35633 | 7835 ft | 6 kts | 177° |
| 2026-05-04 16:06 | -0.11962 | -78.35631 | 7844 ft | 7 kts | 177° |
| 2026-05-04 16:06 | -0.12136 | -78.35625 | 7843 ft | 11 kts | 178° |
| 2026-05-04 16:07 | -0.12239 | -78.35620 | 7843 ft | 11 kts | 177° |
| 2026-05-04 16:07 | -0.12435 | -78.35610 | 7851 ft | 8 kts | 176° |
| 2026-05-04 16:08 | -0.12487 | -78.35609 | 7853 ft | 7 kts | 178° |
| 2026-05-04 16:08 | -0.12601 | -78.35605 | 7857 ft | 7 kts | 178° |
| 2026-05-04 16:09 | -0.12701 | -78.35662 | 7856 ft | 12 kts | 224° |
| 2026-05-04 16:09 | -0.12793 | -78.35680 | 7867 ft | 4 kts | 178° |
| 2026-05-04 16:10 | -0.12848 | -78.35686 | 7870 ft | 5 kts | 207° |
| 2026-05-04 16:11 | -0.12877 | -78.35773 | 7865 ft | 0 kts | 265° |